sensor_id;sensor_type;location;lat;lon;timestamp;temperature;humidity
26655;DHT22;14278;50.784;4.630;2022-12-16T00:01:10;-0.70;99.90
26655;DHT22;14278;50.784;4.630;2022-12-16T00:03:38;-0.60;99.90
26655;DHT22;14278;50.784;4.630;2022-12-16T00:06:06;-0.60;99.90
26655;DHT22;14278;50.784;4.630;2022-12-16T00:08:35;-0.60;99.90
26655;DHT22;14278;50.784;4.630;2022-12-16T00:11:02;-0.50;99.90
26655;DHT22;14278;50.784;4.630;2022-12-16T00:13:33;-0.40;99.90
26655;DHT22;14278;50.784;4.630;2022-12-16T00:16:07;-0.40;99.90
26655;DHT22;14278;50.784;4.630;2022-12-16T00:18:37;-0.30;99.90
26655;DHT22;14278;50.784;4.630;2022-12-16T00:21:03;-0.30;99.90
26655;DHT22;14278;50.784;4.630;2022-12-16T00:23:34;-0.80;99.90
26655;DHT22;14278;50.784;4.630;2022-12-16T00:26:05;-1.30;99.90
26655;DHT22;14278;50.784;4.630;2022-12-16T00:28:31;-0.90;99.90
26655;DHT22;14278;50.784;4.630;2022-12-16T00:30:59;-0.60;99.90
26655;DHT22;14278;50.784;4.630;2022-12-16T00:33:27;-0.50;99.90
26655;DHT22;14278;50.784;4.630;2022-12-16T00:35:54;-0.30;99.90
26655;DHT22;14278;50.784;4.630;2022-12-16T00:38:21;-0.50;99.90
26655;DHT22;14278;50.784;4.630;2022-12-16T00:40:47;-0.30;99.90
26655;DHT22;14278;50.784;4.630;2022-12-16T00:43:14;0.00;99.90
26655;DHT22;14278;50.784;4.630;2022-12-16T00:45:40;0.30;99.90
26655;DHT22;14278;50.784;4.630;2022-12-16T00:48:09;0.40;99.90
26655;DHT22;14278;50.784;4.630;2022-12-16T00:50:38;0.30;99.90
26655;DHT22;14278;50.784;4.630;2022-12-16T00:53:04;0.20;99.90
26655;DHT22;14278;50.784;4.630;2022-12-16T00:55:33;0.10;99.90
26655;DHT22;14278;50.784;4.630;2022-12-16T00:57:59;0.10;99.90
26655;DHT22;14278;50.784;4.630;2022-12-16T01:00:26;0.10;99.90
26655;DHT22;14278;50.784;4.630;2022-12-16T01:02:52;-0.30;99.90
26655;DHT22;14278;50.784;4.630;2022-12-16T01:05:19;-0.60;99.90
26655;DHT22;14278;50.784;4.630;2022-12-16T01:07:47;-0.60;99.90
26655;DHT22;14278;50.784;4.630;2022-12-16T01:10:13;-0.10;99.90
26655;DHT22;14278;50.784;4.630;2022-12-16T01:12:40;-0.20;99.90
26655;DHT22;14278;50.784;4.630;2022-12-16T01:15:09;-0.40;99.90
26655;DHT22;14278;50.784;4.630;2022-12-16T01:17:37;-0.10;99.90
26655;DHT22;14278;50.784;4.630;2022-12-16T01:20:04;-0.20;99.90
26655;DHT22;14278;50.784;4.630;2022-12-16T01:22:34;0.00;99.90
26655;DHT22;14278;50.784;4.630;2022-12-16T01:25:00;0.40;99.90
26655;DHT22;14278;50.784;4.630;2022-12-16T01:27:27;0.50;99.90
26655;DHT22;14278;50.784;4.630;2022-12-16T01:29:56;0.50;99.90
26655;DHT22;14278;50.784;4.630;2022-12-16T01:32:22;0.40;99.90
26655;DHT22;14278;50.784;4.630;2022-12-16T01:34:50;0.40;99.90
26655;DHT22;14278;50.784;4.630;2022-12-16T01:37:18;0.50;99.90
26655;DHT22;14278;50.784;4.630;2022-12-16T01:39:51;0.60;99.90
26655;DHT22;14278;50.784;4.630;2022-12-16T01:42:22;0.60;99.90
26655;DHT22;14278;50.784;4.630;2022-12-16T01:44:51;0.50;99.90
26655;DHT22;14278;50.784;4.630;2022-12-16T01:47:25;0.70;99.90
26655;DHT22;14278;50.784;4.630;2022-12-16T01:49:57;0.60;99.90
26655;DHT22;14278;50.784;4.630;2022-12-16T01:52:31;0.30;99.90
26655;DHT22;14278;50.784;4.630;2022-12-16T01:55:07;0.20;99.90
26655;DHT22;14278;50.784;4.630;2022-12-16T01:57:41;-0.20;99.90
26655;DHT22;14278;50.784;4.630;2022-12-16T02:00:09;-0.30;99.90
26655;DHT22;14278;50.784;4.630;2022-12-16T02:02:35;0.20;99.90
26655;DHT22;14278;50.784;4.630;2022-12-16T02:05:02;0.20;99.90
26655;DHT22;14278;50.784;4.630;2022-12-16T02:16:17;0.20;99.90
26655;DHT22;14278;50.784;4.630;2022-12-16T02:21:50;0.90;99.90
26655;DHT22;14278;50.784;4.630;2022-12-16T02:27:38;1.10;99.90
26655;DHT22;14278;50.784;4.630;2022-12-16T02:32:58;0.80;99.90
26655;DHT22;14278;50.784;4.630;2022-12-16T02:35:37;0.50;99.90
26655;DHT22;14278;50.784;4.630;2022-12-16T02:38:17;0.90;99.90
26655;DHT22;14278;50.784;4.630;2022-12-16T02:41:00;0.90;99.90
26655;DHT22;14278;50.784;4.630;2022-12-16T02:45:56;1.00;99.90
26655;DHT22;14278;50.784;4.630;2022-12-16T02:48:26;0.80;99.90
26655;DHT22;14278;50.784;4.630;2022-12-16T02:50:52;0.40;99.90
26655;DHT22;14278;50.784;4.630;2022-12-16T02:53:19;0.50;99.90
26655;DHT22;14278;50.784;4.630;2022-12-16T03:04:18;1.10;99.90
26655;DHT22;14278;50.784;4.630;2022-12-16T03:06:48;1.20;99.90
26655;DHT22;14278;50.784;4.630;2022-12-16T03:09:18;1.20;99.90
26655;DHT22;14278;50.784;4.630;2022-12-16T03:11:47;1.40;99.90
26655;DHT22;14278;50.784;4.630;2022-12-16T03:14:16;1.40;99.90
26655;DHT22;14278;50.784;4.630;2022-12-16T03:16:46;1.40;99.90
26655;DHT22;14278;50.784;4.630;2022-12-16T03:19:13;1.30;99.90
26655;DHT22;14278;50.784;4.630;2022-12-16T03:22:12;1.30;99.90
26655;DHT22;14278;50.784;4.630;2022-12-16T03:24:39;1.30;99.90
26655;DHT22;14278;50.784;4.630;2022-12-16T03:27:12;1.40;99.90
26655;DHT22;14278;50.784;4.630;2022-12-16T03:29:53;1.00;99.90
26655;DHT22;14278;50.784;4.630;2022-12-16T03:32:38;0.60;99.90
26655;DHT22;14278;50.784;4.630;2022-12-16T03:37:53;0.40;99.90
26655;DHT22;14278;50.784;4.630;2022-12-16T03:40:20;0.90;99.90
26655;DHT22;14278;50.784;4.630;2022-12-16T03:42:48;1.20;99.90
26655;DHT22;14278;50.784;4.630;2022-12-16T03:45:22;1.40;99.90
26655;DHT22;14278;50.784;4.630;2022-12-16T03:47:50;1.20;99.90
26655;DHT22;14278;50.784;4.630;2022-12-16T03:50:18;1.40;99.90
26655;DHT22;14278;50.784;4.630;2022-12-16T03:52:46;1.30;99.90
26655;DHT22;14278;50.784;4.630;2022-12-16T03:55:12;1.20;99.90
26655;DHT22;14278;50.784;4.630;2022-12-16T03:57:38;1.20;99.90
26655;DHT22;14278;50.784;4.630;2022-12-16T04:00:04;1.00;99.90
26655;DHT22;14278;50.784;4.630;2022-12-16T04:02:31;1.30;99.90
26655;DHT22;14278;50.784;4.630;2022-12-16T04:04:57;0.80;99.90
26655;DHT22;14278;50.784;4.630;2022-12-16T04:07:23;1.10;99.90
26655;DHT22;14278;50.784;4.630;2022-12-16T04:09:50;1.40;99.90
26655;DHT22;14278;50.784;4.630;2022-12-16T04:12:17;1.00;99.90
26655;DHT22;14278;50.784;4.630;2022-12-16T04:15:02;0.60;99.90
26655;DHT22;14278;50.784;4.630;2022-12-16T04:17:48;0.40;99.90
26655;DHT22;14278;50.784;4.630;2022-12-16T04:20:43;1.00;99.90
26655;DHT22;14278;50.784;4.630;2022-12-16T04:23:29;1.20;99.90
26655;DHT22;14278;50.784;4.630;2022-12-16T04:26:15;1.20;99.90
26655;DHT22;14278;50.784;4.630;2022-12-16T04:28:41;0.90;99.90
26655;DHT22;14278;50.784;4.630;2022-12-16T04:31:07;0.90;99.90
26655;DHT22;14278;50.784;4.630;2022-12-16T04:33:33;1.30;99.90
26655;DHT22;14278;50.784;4.630;2022-12-16T04:36:17;1.40;99.90
26655;DHT22;14278;50.784;4.630;2022-12-16T04:39:02;1.20;99.90
26655;DHT22;14278;50.784;4.630;2022-12-16T04:41:46;0.80;99.90
26655;DHT22;14278;50.784;4.630;2022-12-16T04:44:30;0.80;99.90
26655;DHT22;14278;50.784;4.630;2022-12-16T04:47:14;1.10;99.90
26655;DHT22;14278;50.784;4.630;2022-12-16T04:49:59;1.00;99.90
26655;DHT22;14278;50.784;4.630;2022-12-16T04:52:43;1.20;99.90
26655;DHT22;14278;50.784;4.630;2022-12-16T04:55:28;0.90;99.90
26655;DHT22;14278;50.784;4.630;2022-12-16T04:58:12;0.40;99.90
26655;DHT22;14278;50.784;4.630;2022-12-16T05:00:56;0.20;99.90
26655;DHT22;14278;50.784;4.630;2022-12-16T05:03:40;0.40;99.90
26655;DHT22;14278;50.784;4.630;2022-12-16T05:06:24;0.70;99.90
26655;DHT22;14278;50.784;4.630;2022-12-16T05:09:09;1.00;99.90
26655;DHT22;14278;50.784;4.630;2022-12-16T05:11:53;1.20;99.90
26655;DHT22;14278;50.784;4.630;2022-12-16T05:14:37;1.10;99.90
26655;DHT22;14278;50.784;4.630;2022-12-16T05:17:21;1.30;99.90
26655;DHT22;14278;50.784;4.630;2022-12-16T05:20:06;1.60;99.90
26655;DHT22;14278;50.784;4.630;2022-12-16T05:22:54;1.50;99.90
26655;DHT22;14278;50.784;4.630;2022-12-16T05:25:39;1.30;99.90
26655;DHT22;14278;50.784;4.630;2022-12-16T05:28:23;1.30;99.90
26655;DHT22;14278;50.784;4.630;2022-12-16T05:31:07;1.30;99.90
26655;DHT22;14278;50.784;4.630;2022-12-16T05:33:51;1.00;99.90
26655;DHT22;14278;50.784;4.630;2022-12-16T05:36:35;1.10;99.90
26655;DHT22;14278;50.784;4.630;2022-12-16T05:39:20;1.20;99.90
26655;DHT22;14278;50.784;4.630;2022-12-16T05:42:04;1.30;99.90
26655;DHT22;14278;50.784;4.630;2022-12-16T05:44:49;1.10;99.90
26655;DHT22;14278;50.784;4.630;2022-12-16T05:47:33;1.30;99.90
26655;DHT22;14278;50.784;4.630;2022-12-16T05:50:18;1.40;99.90
26655;DHT22;14278;50.784;4.630;2022-12-16T05:53:02;1.40;99.90
26655;DHT22;14278;50.784;4.630;2022-12-16T05:55:46;1.50;99.90
26655;DHT22;14278;50.784;4.630;2022-12-16T05:58:30;1.60;99.90
26655;DHT22;14278;50.784;4.630;2022-12-16T06:01:15;1.60;99.90
26655;DHT22;14278;50.784;4.630;2022-12-16T06:03:59;1.80;99.90
26655;DHT22;14278;50.784;4.630;2022-12-16T06:06:44;1.50;99.90
26655;DHT22;14278;50.784;4.630;2022-12-16T06:09:28;1.80;99.90
26655;DHT22;14278;50.784;4.630;2022-12-16T06:12:14;1.70;99.90
26655;DHT22;14278;50.784;4.630;2022-12-16T06:14:58;1.70;99.90
26655;DHT22;14278;50.784;4.630;2022-12-16T06:17:46;1.70;99.90
26655;DHT22;14278;50.784;4.630;2022-12-16T06:20:35;1.90;99.90
26655;DHT22;14278;50.784;4.630;2022-12-16T06:23:19;1.70;99.90
26655;DHT22;14278;50.784;4.630;2022-12-16T06:26:03;1.70;99.90
26655;DHT22;14278;50.784;4.630;2022-12-16T06:28:48;1.40;99.90
26655;DHT22;14278;50.784;4.630;2022-12-16T06:31:32;1.10;99.90
26655;DHT22;14278;50.784;4.630;2022-12-16T06:34:16;1.50;99.90
26655;DHT22;14278;50.784;4.630;2022-12-16T06:37:00;1.70;99.90
26655;DHT22;14278;50.784;4.630;2022-12-16T06:39:47;1.70;99.90
26655;DHT22;14278;50.784;4.630;2022-12-16T06:42:31;1.80;99.90
26655;DHT22;14278;50.784;4.630;2022-12-16T06:45:18;1.80;99.90
26655;DHT22;14278;50.784;4.630;2022-12-16T06:48:02;1.80;99.90
26655;DHT22;14278;50.784;4.630;2022-12-16T06:50:47;1.80;99.90
26655;DHT22;14278;50.784;4.630;2022-12-16T06:53:34;1.80;99.90
26655;DHT22;14278;50.784;4.630;2022-12-16T06:56:18;1.90;99.90
26655;DHT22;14278;50.784;4.630;2022-12-16T06:59:02;2.00;99.90
26655;DHT22;14278;50.784;4.630;2022-12-16T07:01:46;2.00;99.90
26655;DHT22;14278;50.784;4.630;2022-12-16T07:04:31;1.70;99.90
26655;DHT22;14278;50.784;4.630;2022-12-16T07:07:15;1.90;99.90
26655;DHT22;14278;50.784;4.630;2022-12-16T07:09:59;2.30;99.90
26655;DHT22;14278;50.784;4.630;2022-12-16T07:12:43;2.40;99.90
26655;DHT22;14278;50.784;4.630;2022-12-16T07:15:28;2.40;99.90
26655;DHT22;14278;50.784;4.630;2022-12-16T07:18:12;2.50;99.90
26655;DHT22;14278;50.784;4.630;2022-12-16T07:20:56;2.50;99.90
26655;DHT22;14278;50.784;4.630;2022-12-16T07:23:40;2.50;99.90
26655;DHT22;14278;50.784;4.630;2022-12-16T07:26:25;2.60;99.90
26655;DHT22;14278;50.784;4.630;2022-12-16T07:29:09;2.30;99.90
26655;DHT22;14278;50.784;4.630;2022-12-16T07:31:53;2.20;99.90
26655;DHT22;14278;50.784;4.630;2022-12-16T07:34:38;2.40;99.90
26655;DHT22;14278;50.784;4.630;2022-12-16T07:37:22;2.50;99.90
26655;DHT22;14278;50.784;4.630;2022-12-16T07:40:06;2.00;99.90
26655;DHT22;14278;50.784;4.630;2022-12-16T07:42:51;2.10;99.90
26655;DHT22;14278;50.784;4.630;2022-12-16T07:45:35;2.20;99.90
26655;DHT22;14278;50.784;4.630;2022-12-16T07:48:19;1.90;99.90
26655;DHT22;14278;50.784;4.630;2022-12-16T07:51:03;2.00;99.90
26655;DHT22;14278;50.784;4.630;2022-12-16T07:53:47;2.20;99.90
26655;DHT22;14278;50.784;4.630;2022-12-16T07:56:32;2.20;99.90
26655;DHT22;14278;50.784;4.630;2022-12-16T07:59:16;2.60;99.90
26655;DHT22;14278;50.784;4.630;2022-12-16T08:02:00;2.40;99.90
26655;DHT22;14278;50.784;4.630;2022-12-16T08:04:44;2.60;99.90
26655;DHT22;14278;50.784;4.630;2022-12-16T08:07:29;2.40;99.90
26655;DHT22;14278;50.784;4.630;2022-12-16T08:10:13;2.50;99.90
26655;DHT22;14278;50.784;4.630;2022-12-16T08:13:02;2.40;99.90
26655;DHT22;14278;50.784;4.630;2022-12-16T08:15:46;2.60;99.90
26655;DHT22;14278;50.784;4.630;2022-12-16T08:18:31;2.70;99.90
26655;DHT22;14278;50.784;4.630;2022-12-16T08:21:15;2.70;99.90
26655;DHT22;14278;50.784;4.630;2022-12-16T08:24:00;2.70;99.90
26655;DHT22;14278;50.784;4.630;2022-12-16T08:26:44;2.60;99.90
26655;DHT22;14278;50.784;4.630;2022-12-16T08:29:29;2.50;99.90
26655;DHT22;14278;50.784;4.630;2022-12-16T08:32:14;2.30;99.90
26655;DHT22;14278;50.784;4.630;2022-12-16T08:34:58;2.40;99.90
26655;DHT22;14278;50.784;4.630;2022-12-16T08:37:54;2.50;99.90
26655;DHT22;14278;50.784;4.630;2022-12-16T08:40:40;2.10;99.90
26655;DHT22;14278;50.784;4.630;2022-12-16T08:43:24;2.40;99.90
26655;DHT22;14278;50.784;4.630;2022-12-16T08:46:08;2.50;99.90
26655;DHT22;14278;50.784;4.630;2022-12-16T08:49:00;2.50;99.90
26655;DHT22;14278;50.784;4.630;2022-12-16T08:51:45;2.30;99.90
26655;DHT22;14278;50.784;4.630;2022-12-16T08:54:29;2.40;99.90
26655;DHT22;14278;50.784;4.630;2022-12-16T08:57:14;2.30;99.90
26655;DHT22;14278;50.784;4.630;2022-12-16T08:59:58;2.40;99.90
26655;DHT22;14278;50.784;4.630;2022-12-16T09:02:42;2.80;99.90
26655;DHT22;14278;50.784;4.630;2022-12-16T09:05:27;2.60;99.90
26655;DHT22;14278;50.784;4.630;2022-12-16T09:08:11;2.50;99.90
26655;DHT22;14278;50.784;4.630;2022-12-16T09:10:59;2.80;99.90
26655;DHT22;14278;50.784;4.630;2022-12-16T09:13:45;2.80;99.90
26655;DHT22;14278;50.784;4.630;2022-12-16T09:16:29;2.70;99.90
26655;DHT22;14278;50.784;4.630;2022-12-16T09:19:13;2.70;99.90
26655;DHT22;14278;50.784;4.630;2022-12-16T09:21:57;2.80;99.90
26655;DHT22;14278;50.784;4.630;2022-12-16T09:24:42;2.70;99.90
26655;DHT22;14278;50.784;4.630;2022-12-16T09:27:26;2.60;99.90
26655;DHT22;14278;50.784;4.630;2022-12-16T09:30:11;2.50;99.90
26655;DHT22;14278;50.784;4.630;2022-12-16T09:32:55;2.50;99.90
26655;DHT22;14278;50.784;4.630;2022-12-16T09:35:40;2.30;99.90
26655;DHT22;14278;50.784;4.630;2022-12-16T09:38:24;2.20;99.90
26655;DHT22;14278;50.784;4.630;2022-12-16T09:47:18;2.10;99.90
26655;DHT22;14278;50.784;4.630;2022-12-16T09:50:26;2.50;99.90
26655;DHT22;14278;50.784;4.630;2022-12-16T09:53:13;2.90;99.90
26655;DHT22;14278;50.784;4.630;2022-12-16T09:55:58;2.90;99.90
26655;DHT22;14278;50.784;4.630;2022-12-16T09:58:57;2.80;99.90
26655;DHT22;14278;50.784;4.630;2022-12-16T10:01:43;2.90;99.90
26655;DHT22;14278;50.784;4.630;2022-12-16T10:04:27;2.50;99.90
26655;DHT22;14278;50.784;4.630;2022-12-16T10:07:21;2.40;99.90
26655;DHT22;14278;50.784;4.630;2022-12-16T10:19:00;2.70;99.90
26655;DHT22;14278;50.784;4.630;2022-12-16T10:25:16;2.20;99.90
26655;DHT22;14278;50.784;4.630;2022-12-16T10:28:29;2.20;99.90
26655;DHT22;14278;50.784;4.630;2022-12-16T10:31:17;2.40;99.90
26655;DHT22;14278;50.784;4.630;2022-12-16T10:34:04;2.60;99.90
26655;DHT22;14278;50.784;4.630;2022-12-16T10:36:53;2.80;99.90
26655;DHT22;14278;50.784;4.630;2022-12-16T10:39:40;3.20;99.90
26655;DHT22;14278;50.784;4.630;2022-12-16T10:42:30;2.90;99.90
26655;DHT22;14278;50.784;4.630;2022-12-16T10:45:24;3.10;99.90
26655;DHT22;14278;50.784;4.630;2022-12-16T10:48:11;3.10;99.90
26655;DHT22;14278;50.784;4.630;2022-12-16T10:50:58;3.30;99.90
26655;DHT22;14278;50.784;4.630;2022-12-16T10:53:44;3.40;99.90
26655;DHT22;14278;50.784;4.630;2022-12-16T10:56:50;2.70;99.90
26655;DHT22;14278;50.784;4.630;2022-12-16T10:59:40;3.00;99.90
26655;DHT22;14278;50.784;4.630;2022-12-16T11:02:26;3.40;99.90
26655;DHT22;14278;50.784;4.630;2022-12-16T11:05:32;4.90;99.90
26655;DHT22;14278;50.784;4.630;2022-12-16T11:08:29;6.10;99.90
26655;DHT22;14278;50.784;4.630;2022-12-16T11:11:21;6.90;99.90
26655;DHT22;14278;50.784;4.630;2022-12-16T11:14:23;8.20;99.90
26655;DHT22;14278;50.784;4.630;2022-12-16T11:17:24;7.20;99.90
26655;DHT22;14278;50.784;4.630;2022-12-16T11:20:12;7.60;99.90
26655;DHT22;14278;50.784;4.630;2022-12-16T11:23:22;8.10;99.90
26655;DHT22;14278;50.784;4.630;2022-12-16T11:26:08;8.20;99.90
26655;DHT22;14278;50.784;4.630;2022-12-16T11:29:11;8.20;99.90
26655;DHT22;14278;50.784;4.630;2022-12-16T11:34:49;7.80;99.90
26655;DHT22;14278;50.784;4.630;2022-12-16T11:37:36;8.00;99.90
26655;DHT22;14278;50.784;4.630;2022-12-16T11:40:21;7.70;99.90
26655;DHT22;14278;50.784;4.630;2022-12-16T11:43:08;7.40;99.90
26655;DHT22;14278;50.784;4.630;2022-12-16T11:45:55;7.90;99.90
26655;DHT22;14278;50.784;4.630;2022-12-16T11:48:53;7.40;99.90
26655;DHT22;14278;50.784;4.630;2022-12-16T11:51:41;7.30;99.90
26655;DHT22;14278;50.784;4.630;2022-12-16T11:54:32;7.60;99.90
26655;DHT22;14278;50.784;4.630;2022-12-16T11:57:22;7.40;99.90
26655;DHT22;14278;50.784;4.630;2022-12-16T12:00:13;7.70;99.90
26655;DHT22;14278;50.784;4.630;2022-12-16T12:03:15;7.80;99.90
26655;DHT22;14278;50.784;4.630;2022-12-16T12:24:38;9.20;99.90
26655;DHT22;14278;50.784;4.630;2022-12-16T12:27:28;8.70;99.90
26655;DHT22;14278;50.784;4.630;2022-12-16T12:30:16;8.50;99.90
26655;DHT22;14278;50.784;4.630;2022-12-16T12:36:14;8.70;99.90
26655;DHT22;14278;50.784;4.630;2022-12-16T12:39:12;8.00;99.90
26655;DHT22;14278;50.784;4.630;2022-12-16T12:48:23;7.90;99.90
26655;DHT22;14278;50.784;4.630;2022-12-16T12:51:30;7.90;99.90
26655;DHT22;14278;50.784;4.630;2022-12-16T12:57:20;7.30;99.90
26655;DHT22;14278;50.784;4.630;2022-12-16T13:05:59;6.40;99.90
26655;DHT22;14278;50.784;4.630;2022-12-16T13:08:58;6.20;99.90
26655;DHT22;14278;50.784;4.630;2022-12-16T13:20:50;5.50;99.90
26655;DHT22;14278;50.784;4.630;2022-12-16T13:23:45;5.20;99.90
26655;DHT22;14278;50.784;4.630;2022-12-16T13:26:32;5.20;99.90
26655;DHT22;14278;50.784;4.630;2022-12-16T13:29:26;5.40;99.90
26655;DHT22;14278;50.784;4.630;2022-12-16T13:35:15;4.80;99.90
26655;DHT22;14278;50.784;4.630;2022-12-16T13:38:19;4.80;99.90
26655;DHT22;14278;50.784;4.630;2022-12-16T13:41:44;4.80;99.90
26655;DHT22;14278;50.784;4.630;2022-12-16T13:44:10;4.70;99.90
26655;DHT22;14278;50.784;4.630;2022-12-16T13:46:55;4.80;99.90
26655;DHT22;14278;50.784;4.630;2022-12-16T13:49:41;4.80;99.90
26655;DHT22;14278;50.784;4.630;2022-12-16T13:52:53;4.90;99.90
26655;DHT22;14278;50.784;4.630;2022-12-16T13:55:54;4.50;99.90
26655;DHT22;14278;50.784;4.630;2022-12-16T13:58:59;3.70;99.90
26655;DHT22;14278;50.784;4.630;2022-12-16T14:01:56;3.90;99.90
26655;DHT22;14278;50.784;4.630;2022-12-16T14:04:47;4.10;99.90
26655;DHT22;14278;50.784;4.630;2022-12-16T14:07:34;3.90;99.90
26655;DHT22;14278;50.784;4.630;2022-12-16T14:10:29;4.00;99.90
26655;DHT22;14278;50.784;4.630;2022-12-16T14:16:58;3.90;99.90
26655;DHT22;14278;50.784;4.630;2022-12-16T14:20:01;4.00;99.90
26655;DHT22;14278;50.784;4.630;2022-12-16T14:25:56;3.40;99.90
26655;DHT22;14278;50.784;4.630;2022-12-16T14:28:44;3.50;99.90
26655;DHT22;14278;50.784;4.630;2022-12-16T14:31:36;3.40;99.90
26655;DHT22;14278;50.784;4.630;2022-12-16T14:34:27;3.20;99.90
26655;DHT22;14278;50.784;4.630;2022-12-16T14:37:13;3.10;99.90
26655;DHT22;14278;50.784;4.630;2022-12-16T14:39:59;3.20;99.90
26655;DHT22;14278;50.784;4.630;2022-12-16T14:42:51;3.20;99.90
26655;DHT22;14278;50.784;4.630;2022-12-16T14:45:37;3.40;99.90
26655;DHT22;14278;50.784;4.630;2022-12-16T14:48:32;3.30;99.90
26655;DHT22;14278;50.784;4.630;2022-12-16T14:54:34;2.70;99.90
26655;DHT22;14278;50.784;4.630;2022-12-16T14:57:26;2.50;99.90
26655;DHT22;14278;50.784;4.630;2022-12-16T15:00:21;2.40;99.90
26655;DHT22;14278;50.784;4.630;2022-12-16T15:06:02;2.80;99.90
26655;DHT22;14278;50.784;4.630;2022-12-16T15:08:50;2.90;99.90
26655;DHT22;14278;50.784;4.630;2022-12-16T15:11:35;3.10;99.90
26655;DHT22;14278;50.784;4.630;2022-12-16T15:14:25;3.20;99.90
26655;DHT22;14278;50.784;4.630;2022-12-16T15:17:24;3.00;99.90
26655;DHT22;14278;50.784;4.630;2022-12-16T15:20:21;2.80;99.90
26655;DHT22;14278;50.784;4.630;2022-12-16T15:23:38;2.60;99.90
26655;DHT22;14278;50.784;4.630;2022-12-16T15:26:26;2.50;99.90
26655;DHT22;14278;50.784;4.630;2022-12-16T15:29:36;2.80;99.90
26655;DHT22;14278;50.784;4.630;2022-12-16T15:38:31;2.50;99.90
26655;DHT22;14278;50.784;4.630;2022-12-16T15:41:22;2.20;99.90
26655;DHT22;14278;50.784;4.630;2022-12-16T15:44:15;1.90;99.90
26655;DHT22;14278;50.784;4.630;2022-12-16T15:47:00;1.50;99.90
26655;DHT22;14278;50.784;4.630;2022-12-16T15:49:46;1.30;99.90
26655;DHT22;14278;50.784;4.630;2022-12-16T15:52:42;1.30;99.90
26655;DHT22;14278;50.784;4.630;2022-12-16T15:55:31;1.30;99.90
26655;DHT22;14278;50.784;4.630;2022-12-16T15:58:36;1.10;99.90
26655;DHT22;14278;50.784;4.630;2022-12-16T16:01:24;1.40;99.90
26655;DHT22;14278;50.784;4.630;2022-12-16T16:07:15;1.30;99.90
26655;DHT22;14278;50.784;4.630;2022-12-16T16:10:22;1.10;99.90
26655;DHT22;14278;50.784;4.630;2022-12-16T16:13:07;1.10;99.90
26655;DHT22;14278;50.784;4.630;2022-12-16T16:15:52;0.90;99.90
26655;DHT22;14278;50.784;4.630;2022-12-16T16:18:37;0.80;99.90
26655;DHT22;14278;50.784;4.630;2022-12-16T16:21:21;0.90;99.90
26655;DHT22;14278;50.784;4.630;2022-12-16T16:24:07;0.60;99.90
26655;DHT22;14278;50.784;4.630;2022-12-16T16:26:52;0.60;99.90
26655;DHT22;14278;50.784;4.630;2022-12-16T16:29:37;0.50;99.90
26655;DHT22;14278;50.784;4.630;2022-12-16T16:32:21;0.50;99.90
26655;DHT22;14278;50.784;4.630;2022-12-16T16:35:06;0.70;99.90
26655;DHT22;14278;50.784;4.630;2022-12-16T16:37:50;0.90;99.90
26655;DHT22;14278;50.784;4.630;2022-12-16T16:40:39;0.80;99.90
26655;DHT22;14278;50.784;4.630;2022-12-16T16:43:25;0.60;99.90
26655;DHT22;14278;50.784;4.630;2022-12-16T16:46:29;0.40;99.90
26655;DHT22;14278;50.784;4.630;2022-12-16T16:52:14;0.40;99.90
26655;DHT22;14278;50.784;4.630;2022-12-16T16:54:59;0.50;99.90
26655;DHT22;14278;50.784;4.630;2022-12-16T16:57:43;0.20;99.90
26655;DHT22;14278;50.784;4.630;2022-12-16T17:00:28;0.00;99.90
26655;DHT22;14278;50.784;4.630;2022-12-16T17:03:14;-0.20;99.90
26655;DHT22;14278;50.784;4.630;2022-12-16T17:05:58;0.10;99.90
26655;DHT22;14278;50.784;4.630;2022-12-16T17:08:42;0.60;99.90
26655;DHT22;14278;50.784;4.630;2022-12-16T17:11:27;0.60;99.90
26655;DHT22;14278;50.784;4.630;2022-12-16T17:14:13;0.40;99.90
26655;DHT22;14278;50.784;4.630;2022-12-16T17:16:58;0.30;99.90
26655;DHT22;14278;50.784;4.630;2022-12-16T17:19:42;0.20;99.90
26655;DHT22;14278;50.784;4.630;2022-12-16T17:22:27;0.10;99.90
26655;DHT22;14278;50.784;4.630;2022-12-16T17:25:12;0.00;99.90
26655;DHT22;14278;50.784;4.630;2022-12-16T17:27:56;-0.10;99.90
26655;DHT22;14278;50.784;4.630;2022-12-16T17:30:40;-0.20;99.90
26655;DHT22;14278;50.784;4.630;2022-12-16T17:33:25;-0.10;99.90
26655;DHT22;14278;50.784;4.630;2022-12-16T17:36:11;-0.10;99.90
26655;DHT22;14278;50.784;4.630;2022-12-16T17:38:56;-0.10;99.90
26655;DHT22;14278;50.784;4.630;2022-12-16T17:41:40;-0.20;99.90
26655;DHT22;14278;50.784;4.630;2022-12-16T17:44:25;-0.20;99.90
26655;DHT22;14278;50.784;4.630;2022-12-16T17:47:10;-0.30;99.90
26655;DHT22;14278;50.784;4.630;2022-12-16T17:49:55;-0.20;99.90
26655;DHT22;14278;50.784;4.630;2022-12-16T17:52:39;-0.20;99.90
26655;DHT22;14278;50.784;4.630;2022-12-16T17:55:23;-0.20;99.90
26655;DHT22;14278;50.784;4.630;2022-12-16T17:58:08;-0.30;99.90
26655;DHT22;14278;50.784;4.630;2022-12-16T18:00:53;-0.30;99.90
26655;DHT22;14278;50.784;4.630;2022-12-16T18:03:37;-0.10;99.90
26655;DHT22;14278;50.784;4.630;2022-12-16T18:06:21;0.10;99.90
26655;DHT22;14278;50.784;4.630;2022-12-16T18:09:05;-0.10;99.90
26655;DHT22;14278;50.784;4.630;2022-12-16T18:11:49;0.10;99.90
26655;DHT22;14278;50.784;4.630;2022-12-16T18:14:33;0.00;99.90
26655;DHT22;14278;50.784;4.630;2022-12-16T18:17:17;-0.10;99.90
26655;DHT22;14278;50.784;4.630;2022-12-16T18:20:02;-0.20;99.90
26655;DHT22;14278;50.784;4.630;2022-12-16T18:22:51;-0.50;99.90
26655;DHT22;14278;50.784;4.630;2022-12-16T18:25:35;-0.70;99.90
26655;DHT22;14278;50.784;4.630;2022-12-16T18:28:19;-0.40;99.90
26655;DHT22;14278;50.784;4.630;2022-12-16T18:31:04;-0.60;99.90
26655;DHT22;14278;50.784;4.630;2022-12-16T18:33:49;-0.60;99.90
26655;DHT22;14278;50.784;4.630;2022-12-16T18:36:32;-0.30;99.90
26655;DHT22;14278;50.784;4.630;2022-12-16T18:39:17;-0.30;99.90
26655;DHT22;14278;50.784;4.630;2022-12-16T18:42:01;-0.40;99.90
26655;DHT22;14278;50.784;4.630;2022-12-16T18:44:48;-0.40;99.90
26655;DHT22;14278;50.784;4.630;2022-12-16T18:47:32;-0.50;99.90
26655;DHT22;14278;50.784;4.630;2022-12-16T18:50:16;-0.30;99.90
26655;DHT22;14278;50.784;4.630;2022-12-16T18:53:00;-0.30;99.90
26655;DHT22;14278;50.784;4.630;2022-12-16T18:55:45;-0.30;99.90
26655;DHT22;14278;50.784;4.630;2022-12-16T18:58:29;-0.40;99.90
26655;DHT22;14278;50.784;4.630;2022-12-16T19:01:13;-0.60;99.90
26655;DHT22;14278;50.784;4.630;2022-12-16T19:03:57;-0.30;99.90
26655;DHT22;14278;50.784;4.630;2022-12-16T19:06:41;-0.40;99.90
26655;DHT22;14278;50.784;4.630;2022-12-16T19:09:26;-0.50;99.90
26655;DHT22;14278;50.784;4.630;2022-12-16T19:12:10;-0.70;99.90
26655;DHT22;14278;50.784;4.630;2022-12-16T19:14:54;-0.80;99.90
26655;DHT22;14278;50.784;4.630;2022-12-16T19:17:38;-0.90;99.90
26655;DHT22;14278;50.784;4.630;2022-12-16T19:20:23;-0.60;99.90
26655;DHT22;14278;50.784;4.630;2022-12-16T19:23:07;-0.50;99.90
26655;DHT22;14278;50.784;4.630;2022-12-16T19:25:56;-1.00;99.90
26655;DHT22;14278;50.784;4.630;2022-12-16T19:28:40;-1.00;99.90
26655;DHT22;14278;50.784;4.630;2022-12-16T19:31:26;-0.70;99.90